createdAt,value
2018-12-12T00:01:17.944Z,96249.02
2018-12-12T00:03:47.678Z,96251.66
2018-12-12T00:06:17.188Z,96246.39
2018-12-12T00:08:46.795Z,96250.53
2018-12-12T00:11:17.597Z,96250.41
2018-12-12T00:13:46.853Z,96247.08
2018-12-12T00:16:16.426Z,96251.61
2018-12-12T00:18:46.139Z,96249.59
2018-12-12T00:21:15.434Z,96254.86
2018-12-12T00:23:44.656Z,96248.41
2018-12-12T00:26:16.461Z,96254.80
2018-12-12T00:28:47.009Z,96252.47
2018-12-12T00:31:16.264Z,96262.19
2018-12-12T00:33:45.509Z,96255.68
2018-12-12T00:36:14.760Z,96254.98
2018-12-12T00:38:44.027Z,96255.68
2018-12-12T00:41:13.236Z,96260.45
2018-12-12T00:43:42.466Z,96265.83
2018-12-12T00:46:12.109Z,96271.98
2018-12-12T00:51:25.566Z,96273.61
2018-12-12T00:53:55.189Z,96274.11
2018-12-12T00:56:24.402Z,96280.50
2018-12-12T00:58:53.718Z,96276.86
2018-12-12T01:01:23.403Z,96279.19
2018-12-12T01:03:52.673Z,96277.25
2018-12-12T01:06:22.261Z,96283.33
2018-12-12T01:08:54.844Z,96279.56
2018-12-12T01:12:26.776Z,96288.28
2018-12-12T01:14:55.977Z,96290.60
2018-12-12T01:17:26.895Z,96300.25
2018-12-12T01:19:56.842Z,96296.30
2018-12-12T01:22:26.062Z,96298.74
2018-12-12T01:24:55.713Z,96301.69
2018-12-12T01:27:25.072Z,96299.31
2018-12-12T01:29:54.362Z,96303.48
2018-12-12T01:32:24.413Z,96300.63
2018-12-12T01:34:54.055Z,96301.36
2018-12-12T01:37:23.570Z,96304.39
2018-12-12T01:39:53.278Z,96303.77
2018-12-12T01:42:23.756Z,96301.36
2018-12-12T01:44:52.984Z,96305.90
2018-12-12T01:47:22.210Z,96303.99
2018-12-12T01:49:51.944Z,96304.49
2018-12-12T01:52:21.733Z,96312.77
2018-12-12T01:54:50.965Z,96314.21
2018-12-12T01:57:20.196Z,96310.77
2018-12-12T01:59:49.753Z,96315.34
2018-12-12T02:02:19.518Z,96321.61
2018-12-12T02:04:48.782Z,96329.59
2018-12-12T02:07:18.173Z,96330.51
2018-12-12T02:09:47.394Z,96335.08
2018-12-12T02:12:16.623Z,96340.34
2018-12-12T02:14:46.255Z,96337.34
2018-12-12T02:17:15.444Z,96337.25
2018-12-12T02:19:44.690Z,96340.98
2018-12-12T02:22:14.441Z,96348.31
2018-12-12T02:24:43.642Z,96347.38
2018-12-12T02:27:12.840Z,96345.99
2018-12-12T02:29:43.050Z,96346.62
2018-12-12T02:32:12.639Z,96349.03
2018-12-12T02:34:42.154Z,96348.66
2018-12-12T02:37:11.379Z,96350.66
2018-12-12T02:39:41.065Z,96349.97
2018-12-12T02:42:10.285Z,96347.84
2018-12-12T02:44:40.159Z,96351.98
2018-12-12T02:47:09.752Z,96356.23
2018-12-12T02:49:39.513Z,96355.73
2018-12-12T02:52:09.462Z,96352.89
2018-12-12T02:54:39.510Z,96356.91
2018-12-12T02:57:08.752Z,96361.35
2018-12-12T02:59:38.315Z,96362.98
2018-12-12T03:02:07.589Z,96360.34
2018-12-12T03:04:36.896Z,96359.03
2018-12-12T03:07:06.173Z,96366.62
2018-12-12T03:09:35.431Z,96366.09
2018-12-12T03:12:04.633Z,96369.03
2018-12-12T03:14:34.818Z,96378.75
2018-12-12T03:17:04.412Z,96374.39
2018-12-12T03:19:33.849Z,96372.80
2018-12-12T03:22:03.064Z,96374.20
2018-12-12T03:24:33.059Z,96378.09
2018-12-12T03:27:02.511Z,96377.59
2018-12-12T03:29:31.721Z,96377.90
2018-12-12T03:32:01.002Z,96378.81
2018-12-12T03:34:30.921Z,96377.49
2018-12-12T03:37:00.212Z,96381.44
2018-12-12T03:39:30.203Z,96382.06
2018-12-12T03:42:00.112Z,96386.92
2018-12-12T03:44:29.831Z,96384.30
2018-12-12T03:46:59.193Z,96391.06
2018-12-12T03:49:28.873Z,96398.65
2018-12-12T03:51:58.153Z,96390.19
2018-12-12T03:54:27.403Z,96398.18
2018-12-12T03:56:56.659Z,96398.68
2018-12-12T03:59:25.884Z,96403.07
2018-12-12T04:01:55.701Z,96401.00
2018-12-12T04:04:26.448Z,96397.67
2018-12-12T04:06:55.670Z,96406.20
2018-12-12T04:09:24.906Z,96403.07
2018-12-12T04:11:54.164Z,96399.53
2018-12-12T04:14:23.429Z,96401.78
2018-12-12T04:16:52.936Z,96400.78
2018-12-12T04:19:22.709Z,96403.23
2018-12-12T04:21:52.546Z,96409.88
2018-12-12T04:24:24.067Z,96408.37
2018-12-12T04:26:53.296Z,96407.67
2018-12-12T04:29:23.204Z,96406.55
2018-12-12T04:31:52.456Z,96409.88
2018-12-12T04:34:21.699Z,96412.81
2018-12-12T04:36:51.109Z,96419.27
2018-12-12T04:39:21.217Z,96422.09
2018-12-12T04:41:50.693Z,96427.58
2018-12-12T04:44:20.347Z,96427.64
2018-12-12T04:46:49.602Z,96427.13
2018-12-12T04:49:19.118Z,96428.14
2018-12-12T04:51:48.361Z,96430.33
2018-12-12T04:54:17.573Z,96429.01
2018-12-12T04:56:46.769Z,96425.06
2018-12-12T04:59:17.447Z,96429.64
2018-12-12T05:02:02.311Z,96431.86
2018-12-12T05:04:32.586Z,96430.14
2018-12-12T05:07:02.052Z,96434.09
2018-12-12T05:09:31.262Z,96434.09
2018-12-12T05:12:00.777Z,96434.41
2018-12-12T05:14:30.014Z,96426.32
2018-12-12T05:16:59.405Z,96428.95
2018-12-12T05:19:29.914Z,96429.64
2018-12-12T05:21:59.204Z,96428.64
2018-12-12T05:24:32.186Z,96428.64
2018-12-12T05:27:01.401Z,96427.45
2018-12-12T05:29:31.076Z,96431.52
2018-12-12T05:32:00.539Z,96430.64
2018-12-12T05:34:30.090Z,96434.91
2018-12-12T05:36:59.624Z,96430.64
2018-12-12T05:39:28.955Z,96438.35
2018-12-12T05:42:04.922Z,96439.36
2018-12-12T05:44:34.149Z,96440.98
2018-12-12T05:47:03.368Z,96443.75
2018-12-12T05:49:34.331Z,96440.61
2018-12-12T05:52:03.874Z,96445.19
2018-12-12T05:54:33.126Z,96444.25
2018-12-12T05:57:02.584Z,96447.56
2018-12-12T05:59:33.187Z,96447.02
2018-12-12T06:02:02.466Z,96451.47
2018-12-12T06:04:31.975Z,96449.97
2018-12-12T06:07:01.420Z,96450.28
2018-12-12T06:09:30.958Z,96450.28
2018-12-12T06:12:01.505Z,96452.47
2018-12-12T06:14:31.513Z,96452.66
2018-12-12T06:17:00.760Z,96452.97
2018-12-12T06:19:30.032Z,96457.73
2018-12-12T06:21:59.311Z,96454.11
2018-12-12T06:24:29.893Z,96451.66
2018-12-12T06:26:59.684Z,96447.39
2018-12-12T06:29:28.890Z,96448.03
2018-12-12T06:31:58.109Z,96443.77
2018-12-12T06:34:27.751Z,96438.69
2018-12-12T06:36:57.197Z,96440.50
2018-12-12T06:39:27.677Z,96443.00
2018-12-12T06:41:57.846Z,96446.35
2018-12-12T06:44:29.052Z,96446.45
2018-12-12T06:46:58.273Z,96447.09
2018-12-12T06:49:29.008Z,96446.98
2018-12-12T06:51:58.342Z,96445.67
2018-12-12T06:54:28.999Z,96449.36
2018-12-12T06:56:58.238Z,96453.25
2018-12-12T06:59:27.502Z,96458.93
2018-12-12T07:01:56.776Z,96458.70
2018-12-12T07:04:26.382Z,96456.87
2018-12-12T07:06:57.639Z,96459.42
2018-12-12T07:09:27.532Z,96456.42
2018-12-12T07:11:56.805Z,96458.11
2018-12-12T07:14:26.026Z,96462.19
2018-12-12T07:16:55.273Z,96467.68
2018-12-12T07:19:25.030Z,96470.21
2018-12-12T07:21:55.274Z,96468.58
2018-12-12T07:24:24.503Z,96469.40
2018-12-12T07:26:54.554Z,96474.98
2018-12-12T07:29:24.120Z,96469.63
2018-12-12T07:31:53.454Z,96468.12
2018-12-12T07:34:22.756Z,96471.07
2018-12-12T07:36:52.378Z,96474.65
2018-12-12T07:39:21.602Z,96473.94
2018-12-12T07:41:51.383Z,96483.27
2018-12-12T07:44:20.627Z,96475.06
2018-12-12T07:46:50.824Z,96480.83
2018-12-12T07:49:21.422Z,96485.78
2018-12-12T07:51:51.062Z,96489.31
2018-12-12T07:54:20.612Z,96493.58
2018-12-12T07:56:49.913Z,96491.55
2018-12-12T07:59:19.540Z,96492.08
2018-12-12T08:01:49.090Z,96491.67
2018-12-12T08:04:18.346Z,96494.17
2018-12-12T08:06:48.975Z,96498.34
2018-12-12T08:09:18.365Z,96500.66
2018-12-12T08:11:47.705Z,96501.30
2018-12-12T08:14:17.500Z,96502.30
2018-12-12T08:16:47.106Z,96504.97
2018-12-12T08:19:17.026Z,96508.86
2018-12-12T08:21:47.709Z,96509.86
2018-12-12T08:24:17.050Z,96501.87
2018-12-12T08:26:46.328Z,96502.51
2018-12-12T08:29:15.586Z,96510.59
2018-12-12T08:31:44.861Z,96513.98
2018-12-12T08:34:14.834Z,96514.80
2018-12-12T08:36:44.449Z,96515.03
2018-12-12T08:39:14.354Z,96519.11
2018-12-12T08:41:45.022Z,96518.11
2018-12-12T08:44:14.293Z,96519.30
2018-12-12T08:46:44.162Z,96521.74
2018-12-12T08:49:14.634Z,96522.73
2018-12-12T08:51:43.928Z,96520.13
2018-12-12T08:54:14.613Z,96528.98
2018-12-12T08:56:43.801Z,96521.45
2018-12-12T08:59:20.540Z,96527.41
2018-12-12T09:01:49.822Z,96534.66
2018-12-12T09:04:22.651Z,96534.72
2018-12-12T09:06:52.445Z,96536.42
2018-12-12T09:09:22.708Z,96541.14
2018-12-12T09:11:52.619Z,96539.58
2018-12-12T09:14:22.225Z,96537.22
2018-12-12T09:16:51.755Z,96538.53
2018-12-12T09:19:21.713Z,96539.70
2018-12-12T09:21:53.593Z,96536.25
2018-12-12T09:24:22.879Z,96535.21
2018-12-12T09:26:53.617Z,96537.57
2018-12-12T09:29:23.385Z,96531.96
2018-12-12T09:31:52.592Z,96531.99
2018-12-12T09:34:24.272Z,96536.58
2018-12-12T09:36:53.838Z,96539.09
2018-12-12T09:39:23.513Z,96541.94
2018-12-12T09:41:52.833Z,96539.99
2018-12-12T09:44:22.122Z,96541.28
2018-12-12T09:46:51.651Z,96542.28
2018-12-12T09:49:20.933Z,96541.55
2018-12-12T09:51:50.994Z,96541.37
2018-12-12T09:54:20.981Z,96546.27
2018-12-12T09:56:50.196Z,96543.31
2018-12-12T09:59:19.437Z,96547.23
2018-12-12T10:01:49.527Z,96549.37
2018-12-12T10:04:19.216Z,96552.65
2018-12-12T10:06:48.813Z,96551.62
2018-12-12T10:09:19.405Z,96558.92
2018-12-12T10:11:48.663Z,96552.93
2018-12-12T10:14:17.892Z,96548.31
2018-12-12T10:16:47.651Z,96551.39
2018-12-12T10:19:18.335Z,96547.30
2018-12-12T10:21:48.364Z,96544.48
2018-12-12T10:24:18.955Z,96545.75
2018-12-12T10:26:48.177Z,96546.30
2018-12-12T10:29:17.585Z,96550.13
2018-12-12T10:31:48.878Z,96553.77
2018-12-12T10:34:18.585Z,96558.47
2018-12-12T10:36:47.876Z,96552.89
2018-12-12T10:39:17.465Z,96553.58
2018-12-12T10:41:47.256Z,96554.84
2018-12-12T10:44:16.681Z,96554.88
2018-12-12T10:46:50.166Z,96550.20
2018-12-12T10:49:22.626Z,96545.99
2018-12-12T10:51:52.281Z,96543.71
2018-12-12T10:54:21.996Z,96536.38
2018-12-12T10:56:51.613Z,96541.88
2018-12-12T10:59:21.305Z,96543.95
2018-12-12T11:01:53.513Z,96538.92
2018-12-12T11:04:23.926Z,96542.19
2018-12-12T11:06:54.391Z,96536.19
2018-12-12T11:09:24.760Z,96543.78
2018-12-12T11:11:54.019Z,96540.02
2018-12-12T11:14:26.354Z,96541.05
2018-12-12T11:16:56.492Z,96545.67
2018-12-12T11:19:25.804Z,96545.92
2018-12-12T11:21:57.026Z,96542.53
2018-12-12T11:24:26.750Z,96541.19
2018-12-12T11:26:56.001Z,96541.63
2018-12-12T11:29:25.279Z,96538.39
2018-12-12T11:31:54.790Z,96540.13
2018-12-12T11:34:24.564Z,96540.37
2018-12-12T11:36:54.157Z,96539.36
2018-12-12T11:39:24.765Z,96538.58
2018-12-12T11:41:54.367Z,96546.17
2018-12-12T11:44:24.511Z,96541.37
2018-12-12T11:46:54.622Z,96536.86
2018-12-12T11:49:24.674Z,96533.94
2018-12-12T11:51:56.784Z,96542.85
2018-12-12T11:54:27.845Z,96542.95
2018-12-12T11:56:57.563Z,96536.42
2018-12-12T11:59:28.046Z,96535.63
2018-12-12T12:01:57.589Z,96536.20
2018-12-12T12:04:26.938Z,96534.34
2018-12-12T12:06:57.099Z,96535.63
2018-12-12T12:09:28.333Z,96538.27
2018-12-12T12:11:58.677Z,96537.20
2018-12-12T12:14:29.150Z,96536.39
2018-12-12T12:17:03.076Z,96526.75
2018-12-12T12:19:33.880Z,96526.03
2018-12-12T12:22:03.549Z,96526.81
2018-12-12T12:24:35.097Z,96528.45
2018-12-12T12:27:04.740Z,96531.05
2018-12-12T12:29:35.081Z,96534.25
2018-12-12T12:32:05.840Z,96532.23
2018-12-12T12:34:35.531Z,96531.36
2018-12-12T12:37:05.957Z,96533.98
2018-12-12T12:39:35.857Z,96529.85
2018-12-12T12:42:33.059Z,96528.94
2018-12-12T12:45:12.514Z,96529.44
2018-12-12T12:47:42.719Z,96533.95
2018-12-12T12:50:13.651Z,96527.31
2018-12-12T12:52:44.759Z,96533.91
2018-12-12T12:55:17.556Z,96531.09
2018-12-12T12:57:48.622Z,96536.77
2018-12-12T13:00:18.434Z,96529.69
2018-12-12T13:02:50.616Z,96534.45
2018-12-12T13:05:22.041Z,96535.81
2018-12-12T13:07:51.760Z,96534.77
2018-12-12T13:10:21.417Z,96532.50
2018-12-12T13:12:52.318Z,96534.70
2018-12-12T13:15:28.762Z,96535.58
2018-12-12T13:17:58.662Z,96537.44
2018-12-12T13:20:29.428Z,96532.11
2018-12-12T13:23:10.954Z,96537.62
2018-12-12T13:25:40.609Z,96537.40
2018-12-12T13:28:09.981Z,96539.76
2018-12-12T13:30:42.345Z,96531.86
2018-12-12T13:33:12.408Z,96536.08
2018-12-12T13:35:42.450Z,96533.41
2018-12-12T13:38:12.308Z,96540.59
2018-12-12T13:40:41.986Z,96541.03
2018-12-12T13:43:12.559Z,96534.73
2018-12-12T13:45:42.410Z,96540.59
2018-12-12T13:48:11.715Z,96539.98
2018-12-12T13:50:41.032Z,96534.89
2018-12-12T13:53:14.751Z,96540.85
2018-12-12T13:55:44.700Z,96533.98
2018-12-12T13:58:15.475Z,96537.57
2018-12-12T14:00:46.765Z,96531.36
2018-12-12T14:03:17.074Z,96535.25
2018-12-12T14:05:48.796Z,96535.21
2018-12-12T14:08:18.101Z,96534.27
2018-12-12T14:10:47.758Z,96533.00
2018-12-12T14:13:19.508Z,96541.72
2018-12-12T14:15:49.303Z,96538.91
2018-12-12T14:18:20.185Z,96542.50
2018-12-12T14:20:49.971Z,96538.69
2018-12-12T14:23:20.222Z,96538.83
2018-12-12T14:25:49.570Z,96539.93
2018-12-12T14:28:19.133Z,96536.88
2018-12-12T14:31:19.058Z,96538.52
2018-12-12T14:33:49.468Z,96529.61
2018-12-12T14:36:49.573Z,96529.98
2018-12-12T14:39:19.366Z,96540.52
2018-12-12T14:41:48.760Z,96537.88
2018-12-12T14:44:18.304Z,96541.38
2018-12-12T14:46:48.175Z,96548.68
2018-12-12T14:49:18.648Z,96542.52
2018-12-12T14:51:49.272Z,96535.20
2018-12-12T14:54:18.740Z,96540.65
2018-12-12T14:56:48.450Z,96541.47
2018-12-12T14:59:18.453Z,96544.59
2018-12-12T15:01:48.931Z,96550.36
2018-12-12T15:04:18.486Z,96557.48
2018-12-12T15:06:48.395Z,96546.46
2018-12-12T15:09:17.616Z,96552.81
2018-12-12T15:11:47.068Z,96546.09
2018-12-12T15:14:16.606Z,96551.98
2018-12-12T15:16:46.498Z,96543.91
2018-12-12T15:19:16.614Z,96550.91
2018-12-12T15:21:45.866Z,96545.78
2018-12-12T15:24:15.133Z,96545.23
2018-12-12T15:26:45.112Z,96541.52
2018-12-12T15:29:14.592Z,96545.64
2018-12-12T15:31:44.297Z,96545.55
2018-12-12T15:34:15.304Z,96542.15
2018-12-12T15:36:44.947Z,96545.59
2018-12-12T15:39:16.838Z,96543.33
2018-12-12T15:41:46.909Z,96544.83
2018-12-12T15:44:18.810Z,96543.83
2018-12-12T15:46:48.197Z,96545.59
2018-12-12T15:49:18.200Z,96546.96
2018-12-12T15:51:49.965Z,96542.33
2018-12-12T15:54:19.557Z,96549.36
2018-12-12T15:56:49.973Z,96545.91
2018-12-12T15:59:21.796Z,96549.91
2018-12-12T16:01:55.857Z,96554.98
2018-12-12T16:04:30.958Z,96550.03
2018-12-12T16:07:01.396Z,96558.11
2018-12-12T16:09:30.647Z,96557.11
2018-12-12T16:12:01.840Z,96559.20
2018-12-12T16:14:32.533Z,96557.89
2018-12-12T16:17:02.392Z,96561.64
2018-12-12T16:19:33.205Z,96562.32
2018-12-12T16:22:06.429Z,96558.38
2018-12-12T16:24:36.025Z,96551.61
2018-12-12T16:27:05.275Z,96551.43
2018-12-12T16:29:34.518Z,96560.64
2018-12-12T16:32:04.471Z,96554.34
2018-12-12T16:34:33.766Z,96554.98
2018-12-12T16:37:03.563Z,96558.43
2018-12-12T16:39:53.101Z,96557.44
2018-12-12T16:42:23.180Z,96561.95
2018-12-12T16:44:56.621Z,96560.00
2018-12-12T16:47:29.886Z,96564.95
2018-12-12T16:50:00.597Z,96564.31
2018-12-12T16:52:30.440Z,96562.82
2018-12-12T16:55:01.453Z,96565.81
2018-12-12T16:57:33.242Z,96559.73
2018-12-12T17:00:03.672Z,96565.13
2018-12-12T17:02:32.990Z,96563.56
2018-12-12T17:05:02.749Z,96565.64
2018-12-12T17:07:33.065Z,96566.19
2018-12-12T17:10:03.564Z,96568.27
2018-12-12T17:12:35.744Z,96561.83
2018-12-12T17:15:05.419Z,96559.25
2018-12-12T17:17:34.996Z,96555.66
2018-12-12T17:20:05.507Z,96561.82
2018-12-12T17:22:36.713Z,96562.00
2018-12-12T17:29:20.001Z,96555.29
2018-12-12T17:31:54.261Z,96558.73
2018-12-12T17:34:27.680Z,96560.95
2018-12-12T17:36:57.200Z,96559.42
2018-12-12T17:39:26.588Z,96561.63
2018-12-12T17:42:01.345Z,96563.48
2018-12-12T17:44:32.666Z,96568.11
2018-12-12T17:47:04.276Z,96563.30
2018-12-12T17:49:34.200Z,96561.17
2018-12-12T17:52:06.424Z,96566.29
2018-12-12T17:54:37.331Z,96564.30
2018-12-12T17:57:07.144Z,96573.01
2018-12-12T17:59:38.752Z,96574.14
2018-12-12T18:02:09.331Z,96570.87
2018-12-12T18:04:39.261Z,96569.63
2018-12-12T18:07:09.572Z,96570.49
2018-12-12T18:09:40.595Z,96571.67
2018-12-12T18:12:11.054Z,96574.44
2018-12-12T18:14:40.441Z,96574.19
2018-12-12T18:17:10.307Z,96588.36
2018-12-12T18:19:40.727Z,96577.20
2018-12-12T18:22:10.385Z,96580.02
2018-12-12T18:24:39.809Z,96579.84
2018-12-12T18:27:10.880Z,96571.63
2018-12-12T18:29:41.503Z,96574.48
2018-12-12T18:32:12.316Z,96575.41
2018-12-12T18:34:43.465Z,96572.95
2018-12-12T18:37:13.221Z,96580.78
2018-12-12T18:39:43.198Z,96584.72
2018-12-12T18:42:14.321Z,96580.64
2018-12-12T18:44:45.089Z,96580.06
2018-12-12T18:47:15.010Z,96590.33
2018-12-12T18:49:47.017Z,96578.36
2018-12-12T18:52:18.690Z,96581.98
2018-12-12T18:54:51.162Z,96577.22
2018-12-12T18:57:23.363Z,96588.80
2018-12-12T18:59:54.500Z,96584.36
2018-12-12T19:02:25.774Z,96580.24
2018-12-12T19:04:58.395Z,96581.45
2018-12-12T19:07:28.122Z,96584.90
2018-12-12T19:09:59.470Z,96587.70
2018-12-12T19:12:28.783Z,96589.13
2018-12-12T19:15:05.158Z,96581.80
2018-12-12T19:17:48.978Z,96582.73
2018-12-12T19:20:18.313Z,96583.47
2018-12-12T19:22:48.671Z,96591.04
2018-12-12T19:25:18.700Z,96587.91
2018-12-12T19:27:48.518Z,96593.17
2018-12-12T19:30:18.344Z,96593.73
2018-12-12T19:32:49.376Z,96589.14
2018-12-12T19:35:19.793Z,96601.16
2018-12-12T19:37:51.148Z,96598.20
2018-12-12T19:40:20.586Z,96593.30
2018-12-12T19:42:53.065Z,96588.19
2018-12-12T19:45:23.689Z,96591.55
2018-12-12T19:47:53.147Z,96590.99
2018-12-12T19:50:26.502Z,96587.37
2018-12-12T19:52:57.102Z,96586.02
2018-12-12T19:55:27.632Z,96586.55
2018-12-12T19:57:57.521Z,96584.70
2018-12-12T20:00:26.853Z,96579.06
2018-12-12T20:02:58.624Z,96573.70
2018-12-12T20:05:28.890Z,96584.42
2018-12-12T20:08:02.923Z,96580.05
2018-12-12T20:10:35.337Z,96577.77
2018-12-12T20:13:06.092Z,96573.02
2018-12-12T20:15:41.795Z,96569.22
2018-12-12T20:18:11.658Z,96578.41
2018-12-12T20:20:42.395Z,96583.06
2018-12-12T20:23:11.736Z,96578.68
2018-12-12T20:25:43.418Z,96582.95
2018-12-12T20:28:12.704Z,96573.97
2018-12-12T20:30:43.985Z,96572.98
2018-12-12T20:33:13.872Z,96574.97
2018-12-12T20:35:48.059Z,96585.83
2018-12-12T20:38:49.098Z,96582.97
2018-12-12T20:41:20.729Z,96585.63
2018-12-12T20:43:53.962Z,96585.63
2018-12-12T20:46:26.110Z,96598.24
2018-12-12T20:48:57.607Z,96589.02
2018-12-12T20:51:31.758Z,96593.22
2018-12-12T20:54:20.798Z,96595.88
2018-12-12T20:56:54.417Z,96591.27
2018-12-12T20:59:29.515Z,96573.33
2018-12-12T21:01:59.415Z,96574.30
2018-12-12T21:04:30.294Z,96577.80
2018-12-12T21:07:02.771Z,96575.78
2018-12-12T21:09:39.660Z,96579.76
2018-12-12T21:12:11.234Z,96574.06
2018-12-12T21:14:44.572Z,96582.39
2018-12-12T21:17:20.402Z,96585.19
2018-12-12T21:19:51.942Z,96591.41
2018-12-12T21:22:28.327Z,96589.31
2018-12-12T21:25:01.101Z,96584.73
2018-12-12T21:27:32.316Z,96583.01
2018-12-12T21:30:02.285Z,96584.05
2018-12-12T21:32:35.667Z,96592.95
2018-12-12T21:37:55.590Z,96586.98
2018-12-12T21:40:25.460Z,96588.68
2018-12-12T21:43:05.755Z,96591.42
2018-12-12T21:45:38.680Z,96589.77
2018-12-12T21:48:09.746Z,96580.63
2018-12-12T21:50:44.709Z,96585.56
2018-12-12T21:53:17.624Z,96581.56
2018-12-12T21:55:48.490Z,96582.63
2018-12-12T21:58:18.143Z,96585.08
2018-12-12T22:00:51.474Z,96582.23
2018-12-12T22:03:21.344Z,96579.98
2018-12-12T22:05:51.277Z,96575.48
2018-12-12T22:08:20.597Z,96579.52
2018-12-12T22:10:51.629Z,96578.05
2018-12-12T22:13:22.491Z,96581.48
2018-12-12T22:15:58.660Z,96576.96
2018-12-12T22:18:30.532Z,96572.68
2018-12-12T22:21:00.558Z,96571.86
2018-12-12T22:23:33.209Z,96577.28
2018-12-12T22:26:03.997Z,96577.78
2018-12-12T22:28:33.562Z,96568.74
2018-12-12T22:31:03.066Z,96573.00
2018-12-12T22:33:33.462Z,96572.19
2018-12-12T22:36:03.756Z,96571.16
2018-12-12T22:38:34.183Z,96574.81
2018-12-12T22:41:03.978Z,96571.56
2018-12-12T22:43:33.372Z,96569.80
2018-12-12T22:46:04.454Z,96586.56
2018-12-12T22:48:34.563Z,96591.22
2018-12-12T22:51:04.973Z,96590.42
2018-12-12T22:53:35.505Z,96595.52
2018-12-12T22:56:05.649Z,96594.25
2018-12-12T22:58:35.543Z,96582.95
2018-12-12T23:01:13.329Z,96589.66
2018-12-12T23:03:46.590Z,96584.00
2018-12-12T23:08:48.623Z,96572.78
2018-12-12T23:09:01.850Z,96579.39
2018-12-12T23:11:20.815Z,96583.16
2018-12-12T23:13:52.979Z,96579.39
2018-12-12T23:16:24.025Z,96580.16
2018-12-12T23:18:54.156Z,96577.19
2018-12-12T23:21:23.426Z,96578.50
2018-12-12T23:23:52.658Z,96579.81
2018-12-12T23:26:22.412Z,96577.20
2018-12-12T23:28:52.226Z,96580.00
2018-12-12T23:31:21.497Z,96577.04
2018-12-12T23:33:50.779Z,96575.41
2018-12-12T23:36:26.765Z,96572.13
2018-12-12T23:38:52.125Z,96575.62
2018-12-12T23:41:22.532Z,96574.70
2018-12-12T23:43:53.439Z,96580.23
2018-12-12T23:46:22.793Z,96569.90
2018-12-12T23:48:52.116Z,96572.89
2018-12-12T23:51:21.446Z,96576.78
2018-12-12T23:53:50.760Z,96566.10
2018-12-12T23:56:20.118Z,96563.92
2018-12-12T23:58:50.470Z,96556.36
